Time;durP1;ratioP1;P1;durP2;ratioP2;P2;SDS_P1;SDS_P2;PMS_P1;PMS_P2;Temp;Humidity;BMP_temperature;BMP_pressure;BME280_temperature;BME280_humidity;BME280_pressure;Samples;Min_cycle;Max_cycle;Signal;HPM_P1;HPM_P2
2023/05/15 00:00:26;;;;;;;13.97;12.17;;;11.00;99.90;;;;;;5033070;28;20180;-49
2023/05/15 00:02:52;;;;;;;16.10;12.03;;;11.00;99.90;;;;;;5032410;28;20215;-49
2023/05/15 00:05:17;;;;;;;14.57;12.50;;;11.00;99.90;;;;;;5033265;28;20519;-49
2023/05/15 00:07:43;;;;;;;15.10;12.47;;;10.90;99.90;;;;;;5031351;28;20220;-49
2023/05/15 00:10:09;;;;;;;15.73;12.60;;;10.90;99.90;;;;;;5033165;28;20628;-49
2023/05/15 00:12:35;;;;;;;16.10;12.70;;;10.90;99.90;;;;;;5032317;28;20187;-49
2023/05/15 00:15:01;;;;;;;15.53;12.80;;;10.80;99.90;;;;;;5034064;28;20933;-49
2023/05/15 00:17:27;;;;;;;21.43;13.40;;;10.80;99.90;;;;;;5030647;28;20474;-49
2023/05/15 00:19:57;;;;;;;14.37;12.37;;;10.80;99.90;;;;;;5033343;28;20183;-49
2023/05/15 00:22:23;;;;;;;14.80;13.03;;;10.80;99.90;;;;;;5031175;28;20191;-49
2023/05/15 00:24:49;;;;;;;16.30;12.47;;;10.80;99.90;;;;;;5032722;28;20454;-49
2023/05/15 00:27:15;;;;;;;13.90;12.37;;;10.80;99.90;;;;;;5032360;28;20441;-49
2023/05/15 00:29:40;;;;;;;15.50;12.53;;;10.80;99.90;;;;;;5033355;28;20272;-49
2023/05/15 00:32:06;;;;;;;14.00;12.50;;;10.80;99.90;;;;;;5032542;28;20583;-49
2023/05/15 00:34:32;;;;;;;16.30;12.20;;;10.80;99.90;;;;;;5030071;28;20199;-49
2023/05/15 00:36:58;;;;;;;19.20;12.97;;;10.70;99.90;;;;;;5031371;28;20184;-49
2023/05/15 00:39:24;;;;;;;13.67;12.27;;;10.70;99.90;;;;;;5031845;28;20184;-49
2023/05/15 00:41:51;;;;;;;17.60;12.10;;;10.70;99.90;;;;;;5031887;28;20438;-49
2023/05/15 00:44:19;;;;;;;14.30;11.77;;;10.60;99.90;;;;;;5032633;28;20192;-49
2023/05/15 00:46:48;;;;;;;15.47;12.70;;;10.50;99.90;;;;;;5032254;28;20475;-49
2023/05/15 00:49:15;;;;;;;15.50;12.47;;;10.50;99.90;;;;;;5031916;28;20934;-49
2023/05/15 00:51:43;;;;;;;15.80;13.00;;;10.50;99.90;;;;;;5029736;28;20474;-49
2023/05/15 00:54:09;;;;;;;16.63;13.20;;;10.40;99.90;;;;;;5035092;28;20438;-49
2023/05/15 00:56:36;;;;;;;18.37;13.40;;;10.40;1.00;;;;;;5033761;28;20444;-49
2023/05/15 00:59:05;;;;;;;16.93;13.27;;;10.30;1.00;;;;;;5035881;28;20477;-49
2023/05/15 01:01:33;;;;;;;18.77;14.03;;;10.30;1.00;;;;;;5033097;28;20438;-49
2023/05/15 01:04:00;;;;;;;18.20;14.17;;;10.20;1.00;;;;;;5035809;28;20855;-49
2023/05/15 01:06:26;;;;;;;17.20;15.03;;;10.20;1.00;;;;;;5033924;28;20536;-49
2023/05/15 01:08:54;;;;;;;15.50;13.37;;;10.20;1.00;;;;;;5035185;28;20875;-49
2023/05/15 01:11:23;;;;;;;19.50;15.20;;;10.20;1.00;;;;;;5034646;28;20211;-49
2023/05/15 01:13:48;;;;;;;22.10;15.40;;;10.20;1.00;;;;;;5036271;28;20532;-49
2023/05/15 01:16:14;;;;;;;17.20;15.00;;;10.20;72.50;;;;;;5033893;28;20545;-49
2023/05/15 01:18:40;;;;;;;21.30;14.10;;;10.10;99.90;;;;;;5034515;28;20230;-49
2023/05/15 01:21:35;;;;;;;19.27;14.83;;;10.10;98.80;;;;;;5032086;28;20234;-49
2023/05/15 01:24:19;;;;;;;16.30;13.53;;;10.10;99.90;;;;;;5029516;28;20203;-49
2023/05/15 01:26:50;;;;;;;18.33;14.30;;;10.20;99.90;;;;;;5034353;28;20442;-49
2023/05/15 01:29:34;;;;;;;16.77;13.80;;;10.10;99.90;;;;;;5033833;28;20775;-49
2023/05/15 01:32:10;;;;;;;14.90;13.30;;;10.10;92.20;;;;;;5034260;28;20434;-49
2023/05/15 01:34:55;;;;;;;16.73;14.73;;;10.10;99.90;;;;;;5032670;28;20536;-49
2023/05/15 01:37:24;;;;;;;17.20;13.90;;;10.00;99.90;;;;;;5031904;28;20519;-49
2023/05/15 01:39:56;;;;;;;20.77;15.50;;;10.00;99.90;;;;;;5034768;28;20438;-49
2023/05/15 01:42:29;;;;;;;18.90;15.60;;;10.00;99.90;;;;;;5033124;28;20926;-49
2023/05/15 01:44:56;;;;;;;18.93;15.30;;;9.90;99.90;;;;;;5034228;28;20784;-50
2023/05/15 01:47:32;;;;;;;19.73;15.10;;;9.90;99.90;;;;;;5036103;28;20836;-49
2023/05/15 01:50:01;;;;;;;21.33;16.77;;;9.90;99.90;;;;;;5034327;28;20494;-49
2023/05/15 01:52:37;;;;;;;17.07;15.23;;;9.90;1.00;;;;;;5035040;28;20499;-49
2023/05/15 01:55:06;;;;;;;21.13;16.27;;;9.90;1.00;;;;;;5033215;28;20531;-49
2023/05/15 01:57:32;;;;;;;19.93;16.30;;;9.90;1.00;;;;;;5031538;28;20469;-49
2023/05/15 01:59:59;;;;;;;16.40;14.67;;;9.90;1.00;;;;;;5033447;28;20467;-49
2023/05/15 02:02:27;;;;;;;16.57;14.50;;;9.90;1.00;;;;;;5035217;28;20441;-49
2023/05/15 02:04:53;;;;;;;23.30;16.20;;;9.80;1.00;;;;;;5030943;28;20521;-50
2023/05/15 02:07:19;;;;;;;23.83;14.80;;;9.80;1.00;;;;;;5032907;28;20532;-49
2023/05/15 02:09:45;;;;;;;18.97;15.10;;;9.70;47.90;;;;;;5033854;28;20950;-50
2023/05/15 02:12:11;;;;;;;21.03;16.50;;;9.70;10.00;;;;;;5031215;28;20500;-50
2023/05/15 02:14:39;;;;;;;19.17;15.33;;;9.70;1.00;;;;;;5032674;28;20211;-49
2023/05/15 02:17:05;;;;;;;21.13;16.40;;;9.60;49.40;;;;;;5033320;28;20766;-49
2023/05/15 02:19:31;;;;;;;18.80;15.47;;;9.60;99.90;;;;;;5035163;28;20476;-50
2023/05/15 02:21:56;;;;;;;22.33;16.80;;;9.60;99.90;;;;;;5031719;28;20950;-49
2023/05/15 02:24:22;;;;;;;20.83;16.83;;;9.60;99.90;;;;;;5035775;28;20703;-49
2023/05/15 02:27:10;;;;;;;25.90;15.43;;;9.50;99.90;;;;;;5031398;28;20180;-49
2023/05/15 02:29:47;;;;;;;19.90;16.40;;;9.50;99.90;;;;;;5032574;28;20238;-49
2023/05/15 02:32:31;;;;;;;23.93;16.90;;;9.50;1.00;;;;;;5033394;28;20442;-49
2023/05/15 02:35:40;;;;;;;24.00;17.77;;;9.50;99.90;;;;;;5033849;28;20453;-49
2023/05/15 02:38:11;;;;;;;19.50;16.03;;;9.40;99.90;;;;;;5029800;28;20470;-49
2023/05/15 02:40:38;;;;;;;19.67;15.50;;;9.40;99.90;;;;;;5033606;28;20441;-49
2023/05/15 02:43:06;;;;;;;21.43;15.90;;;9.40;99.90;;;;;;5034643;28;20446;-49
2023/05/15 02:45:34;;;;;;;17.97;15.90;;;9.40;99.90;;;;;;5031977;28;20449;-49
2023/05/15 02:48:01;;;;;;;20.47;17.53;;;9.40;84.00;;;;;;5034526;28;20442;-49
2023/05/15 02:50:27;;;;;;;19.07;16.60;;;9.30;45.40;;;;;;5031980;28;20584;-49
2023/05/15 02:53:04;;;;;;;17.77;15.80;;;9.30;46.50;;;;;;5032400;28;20472;-49
2023/05/15 02:55:30;;;;;;;17.43;15.57;;;9.30;1.00;;;;;;5031520;28;20528;-49
2023/05/15 02:57:56;;;;;;;20.20;16.57;;;9.20;1.00;;;;;;5031390;28;20473;-49
2023/05/15 03:00:22;;;;;;;24.77;18.33;;;9.20;1.00;;;;;;5032298;28;20184;-49
2023/05/15 03:02:48;;;;;;;19.83;16.83;;;9.10;1.00;;;;;;5034375;28;20814;-49
2023/05/15 03:05:13;;;;;;;19.63;16.13;;;9.10;99.90;;;;;;5030838;28;20187;-49
2023/05/15 03:07:40;;;;;;;19.03;16.67;;;9.00;99.90;;;;;;5032165;28;20198;-49
2023/05/15 03:10:06;;;;;;;22.30;18.67;;;9.00;1.00;;;;;;5031081;28;20210;-49
2023/05/15 03:12:32;;;;;;;24.30;17.70;;;9.00;99.90;;;;;;5031973;28;20445;-49
2023/05/15 03:14:57;;;;;;;23.40;18.27;;;9.00;1.00;;;;;;5031039;28;20997;-49
2023/05/15 03:17:23;;;;;;;21.20;17.60;;;9.00;1.00;;;;;;5032234;28;20242;-49
2023/05/15 03:19:49;;;;;;;23.50;18.20;;;8.90;1.00;;;;;;5032938;28;20616;-49
2023/05/15 03:22:14;;;;;;;28.90;20.77;;;8.90;1.00;;;;;;5032837;28;20186;-49
2023/05/15 03:24:40;;;;;;;24.17;20.00;;;8.90;99.90;;;;;;5032801;28;20644;-49
2023/05/15 03:27:05;;;;;;;22.67;18.70;;;8.90;99.90;;;;;;5032671;28;20209;-49
2023/05/15 03:29:31;;;;;;;23.20;19.80;;;8.90;1.00;;;;;;5033565;28;20191;-49
2023/05/15 03:31:56;;;;;;;22.43;17.57;;;8.90;1.00;;;;;;5030993;28;20191;-49
2023/05/15 03:34:22;;;;;;;22.13;18.00;;;9.00;99.90;;;;;;5031366;28;20188;-50
2023/05/15 03:36:48;;;;;;;23.90;18.63;;;9.00;99.90;;;;;;5029996;28;20270;-49
2023/05/15 03:39:13;;;;;;;23.87;18.80;;;9.00;1.00;;;;;;5032705;28;20221;-50
2023/05/15 03:41:39;;;;;;;24.40;18.77;;;9.00;99.90;;;;;;5032393;28;20193;-49
2023/05/15 03:44:04;;;;;;;21.40;17.87;;;9.00;1.00;;;;;;5032409;28;20624;-49
2023/05/15 03:46:30;;;;;;;23.40;18.07;;;8.90;99.90;;;;;;5032522;28;20267;-49
2023/05/15 03:48:56;;;;;;;24.90;20.03;;;8.90;99.90;;;;;;5032710;28;20187;-49
2023/05/15 03:51:22;;;;;;;30.60;19.50;;;8.90;99.90;;;;;;5031054;28;20227;-49
2023/05/15 03:53:48;;;;;;;21.83;17.07;;;8.90;85.20;;;;;;5034489;28;20245;-49
2023/05/15 03:56:14;;;;;;;26.10;17.70;;;8.90;99.90;;;;;;5026460;28;20458;-49
2023/05/15 03:58:40;;;;;;;31.97;19.80;;;9.00;81.30;;;;;;5028781;28;20214;-49
2023/05/15 04:01:06;;;;;;;21.00;18.30;;;9.00;1.00;;;;;;5031065;28;20445;-49
2023/05/15 04:03:32;;;;;;;25.70;19.00;;;9.00;1.00;;;;;;5017031;28;20232;-49
2023/05/15 04:05:58;;;;;;;24.10;19.27;;;9.00;1.00;;;;;;5030180;28;20479;-49
2023/05/15 04:08:23;;;;;;;21.90;19.30;;;9.00;1.00;;;;;;5030624;28;20727;-49
2023/05/15 04:10:49;;;;;;;22.63;18.63;;;9.10;1.00;;;;;;5032551;28;20195;-49
2023/05/15 04:13:15;;;;;;;21.20;17.43;;;9.10;99.90;;;;;;5031071;28;20198;-49
2023/05/15 04:15:41;;;;;;;24.67;20.10;;;9.10;99.90;;;;;;5030685;28;20596;-49
2023/05/15 04:18:06;;;;;;;27.70;20.27;;;9.20;1.00;;;;;;5031567;28;20211;-50
2023/05/15 04:20:32;;;;;;;23.33;19.97;;;9.20;1.00;;;;;;5030515;28;20241;-50
2023/05/15 04:22:58;;;;;;;24.17;19.60;;;9.20;99.90;;;;;;5032067;28;20563;-49
2023/05/15 04:25:24;;;;;;;28.37;20.30;;;9.30;99.90;;;;;;5031070;28;20438;-49
2023/05/15 04:27:50;;;;;;;26.33;20.70;;;9.40;1.00;;;;;;5032368;28;20659;-49
2023/05/15 04:30:16;;;;;;;24.90;20.60;;;9.40;1.00;;;;;;5035910;28;20442;-49
2023/05/15 04:32:42;;;;;;;22.10;18.13;;;9.50;99.90;;;;;;5034211;28;20187;-49
2023/05/15 04:35:09;;;;;;;25.90;19.67;;;9.60;1.00;;;;;;5034706;28;20219;-49
2023/05/15 04:37:38;;;;;;;23.97;19.97;;;9.70;1.00;;;;;;5035973;28;20458;-49
2023/05/15 04:40:06;;;;;;;29.93;22.00;;;9.80;99.90;;;;;;5035605;28;20952;-49
2023/05/15 04:42:32;;;;;;;27.30;21.00;;;9.90;1.00;;;;;;5034664;28;20473;-49
2023/05/15 04:44:58;;;;;;;30.90;21.47;;;10.00;1.00;;;;;;5035730;28;20441;-49
2023/05/15 04:47:24;;;;;;;28.43;22.23;;;10.10;99.90;;;;;;5035880;28;20442;-49
2023/05/15 04:49:50;;;;;;;27.70;21.83;;;10.30;1.00;;;;;;5034382;28;20500;-49
2023/05/15 04:52:16;;;;;;;26.73;19.03;;;10.40;1.00;;;;;;5035492;28;20233;-49
2023/05/15 04:54:41;;;;;;;24.17;20.10;;;10.60;99.90;;;;;;5036387;28;20293;-49
2023/05/15 04:57:08;;;;;;;27.07;19.87;;;10.80;1.00;;;;;;5034600;28;20437;-49
2023/05/15 04:59:33;;;;;;;24.87;19.77;;;10.90;99.90;;;;;;5034541;28;20892;-49
2023/05/15 05:01:59;;;;;;;27.70;18.53;;;11.10;1.00;;;;;;5036720;28;20914;-49
2023/05/15 05:04:25;;;;;;;23.40;19.90;;;11.20;1.00;;;;;;5036414;28;20215;-50
2023/05/15 05:06:51;;;;;;;21.80;19.00;;;11.40;99.90;;;;;;5033981;28;20484;-49
2023/05/15 05:09:18;;;;;;;25.43;18.70;;;11.60;33.20;;;;;;5035506;28;20262;-49
2023/05/15 05:11:44;;;;;;;23.13;19.03;;;11.70;1.00;;;;;;5034042;28;20241;-49
2023/05/15 05:14:10;;;;;;;22.50;17.17;;;11.80;99.90;;;;;;5033007;28;20944;-49
2023/05/15 05:16:36;;;;;;;22.83;18.87;;;12.00;99.90;;;;;;5034325;28;20437;-49
2023/05/15 05:19:02;;;;;;;30.07;19.67;;;12.20;36.40;;;;;;5035846;28;20465;-50
2023/05/15 05:21:28;;;;;;;25.23;18.90;;;12.30;1.00;;;;;;5034793;28;20740;-49
2023/05/15 05:23:55;;;;;;;23.63;18.80;;;12.50;1.00;;;;;;5035151;28;20434;-49
2023/05/15 05:26:20;;;;;;;22.53;18.43;;;12.70;99.90;;;;;;5034165;28;20454;-49
2023/05/15 05:28:46;;;;;;;20.10;16.87;;;12.90;99.90;;;;;;5032072;28;20942;-48
2023/05/15 05:31:12;;;;;;;26.87;18.50;;;13.10;99.90;;;;;;5031666;28;20926;-48
2023/05/15 05:33:37;;;;;;;22.27;15.83;;;13.30;99.90;;;;;;5032676;28;20198;-47
2023/05/15 05:36:04;;;;;;;22.93;17.63;;;13.60;99.90;;;;;;5034378;28;20188;-47
2023/05/15 05:38:30;;;;;;;19.83;16.90;;;13.80;78.00;;;;;;5033141;28;20216;-48
2023/05/15 05:40:55;;;;;;;18.40;16.13;;;14.00;60.20;;;;;;5032750;28;20534;-48
2023/05/15 05:43:21;;;;;;;17.63;15.73;;;14.30;51.70;;;;;;5035429;28;20435;-47
2023/05/15 05:45:47;;;;;;;18.20;15.50;;;14.50;1.00;;;;;;5033450;28;20185;-47
2023/05/15 05:48:12;;;;;;;19.90;16.80;;;14.70;1.00;;;;;;5032898;28;20262;-48
2023/05/15 05:50:39;;;;;;;22.10;16.23;;;14.90;1.00;;;;;;5034075;28;20639;-48
2023/05/15 05:53:05;;;;;;;18.63;16.43;;;15.00;1.00;;;;;;5032032;28;20242;-47
2023/05/15 05:55:30;;;;;;;20.20;15.73;;;15.20;1.00;;;;;;5033386;28;20443;-47
2023/05/15 05:57:56;;;;;;;19.73;16.77;;;15.40;1.00;;;;;;5034875;28;20246;-48
2023/05/15 06:00:24;;;;;;;19.00;16.37;;;15.50;1.00;;;;;;5036209;28;20222;-47
2023/05/15 06:02:54;;;;;;;22.20;15.30;;;15.60;1.00;;;;;;5035187;28;20189;-48
2023/05/15 06:05:22;;;;;;;22.33;15.83;;;15.80;1.00;;;;;;5033393;28;20431;-48
2023/05/15 06:07:47;;;;;;;16.87;15.07;;;16.00;1.00;;;;;;5028161;28;20528;-49
2023/05/15 06:10:13;;;;;;;21.43;15.50;;;16.30;1.00;;;;;;5035723;28;20948;-49
2023/05/15 06:12:39;;;;;;;21.77;14.27;;;16.50;1.00;;;;;;5035933;28;20190;-48
2023/05/15 06:15:05;;;;;;;16.60;12.70;;;16.70;1.00;;;;;;5035715;28;20593;-49
2023/05/15 06:17:31;;;;;;;18.27;13.60;;;16.80;1.00;;;;;;5034667;28;20262;-48
2023/05/15 06:19:57;;;;;;;15.83;13.20;;;16.90;1.00;;;;;;5027267;28;20456;-49
2023/05/15 06:22:22;;;;;;;15.37;12.87;;;17.20;1.00;;;;;;5030724;28;20245;-49
2023/05/15 06:24:48;;;;;;;13.87;12.13;;;17.50;1.00;;;;;;5035736;28;20552;-50
2023/05/15 06:27:13;;;;;;;13.10;10.87;;;17.80;1.00;;;;;;5034443;28;20525;-50
2023/05/15 06:29:39;;;;;;;14.23;9.00;;;17.90;1.00;;;;;;5034289;28;20198;-50
2023/05/15 06:32:05;;;;;;;11.03;9.53;;;18.10;1.00;;;;;;5035472;28;20188;-50
2023/05/15 06:34:30;;;;;;;10.50;9.23;;;18.30;1.00;;;;;;5035619;28;20190;-50
2023/05/15 06:36:56;;;;;;;11.93;8.50;;;18.40;1.00;;;;;;5034372;28;20221;-50
2023/05/15 06:39:22;;;;;;;10.23;8.67;;;18.60;1.00;;;;;;5034346;28;20253;-50
2023/05/15 06:41:47;;;;;;;11.50;9.37;;;18.80;1.00;;;;;;5033114;28;20536;-50
2023/05/15 06:44:13;;;;;;;11.37;9.27;;;19.10;1.00;;;;;;5035493;28;20186;-50
2023/05/15 06:46:38;;;;;;;11.90;9.20;;;19.20;1.00;;;;;;5033034;28;20779;-52
2023/05/15 06:49:04;;;;;;;12.37;8.93;;;19.50;1.00;;;;;;5034210;28;20186;-51
2023/05/15 06:51:30;;;;;;;15.60;9.27;;;19.70;1.00;;;;;;5034920;28;20238;-51
2023/05/15 06:53:56;;;;;;;12.20;8.40;;;19.80;1.00;;;;;;5033526;28;20827;-51
2023/05/15 06:56:21;;;;;;;9.93;8.97;;;20.00;1.00;;;;;;5031000;28;20651;-51
2023/05/15 06:58:47;;;;;;;10.40;8.30;;;20.20;1.00;;;;;;5034697;28;20686;-51
2023/05/15 07:01:12;;;;;;;13.00;7.77;;;20.50;1.00;;;;;;5035292;28;20634;-51
2023/05/15 07:03:38;;;;;;;11.57;8.13;;;20.60;1.00;;;;;;5034823;28;20179;-50
2023/05/15 07:06:04;;;;;;;8.37;6.90;;;20.80;1.00;;;;;;5035208;28;20273;-50
2023/05/15 07:08:30;;;;;;;7.40;6.47;;;21.00;1.00;;;;;;5034597;28;20822;-51
2023/05/15 07:10:55;;;;;;;7.40;6.03;;;21.20;1.00;;;;;;5034542;28;20182;-50
2023/05/15 07:13:21;;;;;;;8.53;5.43;;;21.10;1.00;;;;;;5034521;28;20214;-50
2023/05/15 07:15:46;;;;;;;12.73;5.03;;;21.30;1.00;;;;;;5034466;28;20183;-51
2023/05/15 07:18:12;;;;;;;9.33;5.23;;;21.50;1.00;;;;;;5034352;28;20214;-50
2023/05/15 07:20:38;;;;;;;11.57;6.37;;;21.50;1.00;;;;;;5034359;28;20222;-50
2023/05/15 07:23:04;;;;;;;6.57;5.97;;;21.60;1.00;;;;;;5034744;28;20187;-50
2023/05/15 07:25:30;;;;;;;6.40;5.80;;;21.80;1.00;;;;;;5034271;28;20209;-51
2023/05/15 07:27:56;;;;;;;6.00;5.33;;;21.90;1.00;;;;;;5033897;28;20937;-51
2023/05/15 07:30:21;;;;;;;5.90;4.60;;;22.10;1.00;;;;;;5034192;28;20178;-51
2023/05/15 07:32:47;;;;;;;5.30;4.80;;;22.30;1.00;;;;;;5033857;28;20185;-50
2023/05/15 07:35:13;;;;;;;5.70;4.47;;;22.50;1.00;;;;;;5033888;28;20180;-51
2023/05/15 07:37:39;;;;;;;5.93;5.33;;;22.80;1.00;;;;;;5033954;28;20474;-50
2023/05/15 07:40:06;;;;;;;7.90;4.63;;;23.00;1.00;;;;;;5034040;28;20187;-51
2023/05/15 07:42:32;;;;;;;8.13;5.37;;;23.30;1.00;;;;;;5033968;28;20424;-48
2023/05/15 07:44:57;;;;;;;5.10;4.50;;;23.50;1.00;;;;;;5033951;28;20432;-51
2023/05/15 07:47:23;;;;;;;9.57;4.80;;;23.60;99.90;;;;;;5033619;28;20215;-51
2023/05/15 07:49:49;;;;;;;5.83;4.47;;;23.60;99.90;;;;;;5033507;28;20272;-50
2023/05/15 07:52:14;;;;;;;5.77;4.47;;;23.70;99.90;;;;;;5033907;28;20173;-49
2023/05/15 07:54:42;;;;;;;5.90;4.70;;;23.70;99.90;;;;;;5033503;28;20185;-48
2023/05/15 07:57:08;;;;;;;5.67;4.73;;;23.90;99.90;;;;;;5033409;28;20187;-49
2023/05/15 07:59:35;;;;;;;6.20;5.10;;;24.00;99.90;;;;;;5033681;28;20451;-49
2023/05/15 08:02:00;;;;;;;7.10;4.27;;;24.10;99.90;;;;;;5032692;28;20413;-49
2023/05/15 08:04:26;;;;;;;5.03;4.53;;;24.00;99.90;;;;;;5033565;28;20417;-49
2023/05/15 08:06:52;;;;;;;6.97;4.83;;;24.10;99.90;;;;;;5033647;28;20189;-49
2023/05/15 08:09:18;;;;;;;5.93;4.70;;;24.40;99.90;;;;;;5033678;28;20650;-49
2023/05/15 08:11:43;;;;;;;6.10;4.03;;;24.40;99.90;;;;;;5033562;28;20637;-49
2023/05/15 08:14:09;;;;;;;5.63;4.37;;;24.30;99.90;;;;;;5033570;28;20193;-49
2023/05/15 08:16:35;;;;;;;4.60;4.17;;;24.30;99.90;;;;;;5033520;28;20603;-51
2023/05/15 08:19:03;;;;;;;4.47;4.00;;;24.70;99.90;;;;;;5033363;28;20232;-49
2023/05/15 08:21:30;;;;;;;7.33;4.33;;;24.90;99.90;;;;;;5033587;28;20260;-49
2023/05/15 08:23:56;;;;;;;5.10;4.40;;;24.80;99.90;;;;;;5033422;28;20413;-49
2023/05/15 08:26:22;;;;;;;7.80;4.13;;;24.70;99.90;;;;;;5033403;28;20421;-49
2023/05/15 08:28:48;;;;;;;5.80;3.87;;;25.00;99.90;;;;;;5033336;28;20579;-49
2023/05/15 08:31:13;;;;;;;4.70;4.20;;;25.20;99.90;;;;;;5033367;28;20497;-49
2023/05/15 08:33:39;;;;;;;5.10;3.60;;;25.30;99.90;;;;;;5033266;28;20540;-49
2023/05/15 08:36:05;;;;;;;16.87;3.80;;;25.30;99.90;;;;;;5033185;28;20191;-49
2023/05/15 08:38:30;;;;;;;4.50;4.10;;;25.20;99.90;;;;;;5033221;28;20696;-49
2023/05/15 08:41:01;;;;;;;4.33;3.70;;;25.30;99.90;;;;;;5033163;28;20639;-49
2023/05/15 08:43:30;;;;;;;5.60;3.53;;;25.50;99.90;;;;;;5033395;28;20189;-49
2023/05/15 08:45:56;;;;;;;4.60;4.00;;;25.80;99.90;;;;;;5033593;28;20421;-49
2023/05/15 08:48:25;;;;;;;5.43;4.00;;;26.00;99.90;;;;;;5032910;28;20795;-49
2023/05/15 08:50:51;;;;;;;5.47;3.73;;;26.10;99.90;;;;;;5032659;28;20977;-49
2023/05/15 08:53:17;;;;;;;5.33;3.70;;;25.90;99.90;;;;;;5033204;28;20422;-49
2023/05/15 08:55:43;;;;;;;4.07;3.77;;;26.10;99.90;;;;;;5033169;28;20418;-49
2023/05/15 08:58:09;;;;;;;7.40;4.10;;;26.10;99.90;;;;;;5032818;28;20874;-49
2023/05/15 09:00:36;;;;;;;3.93;3.50;;;25.80;99.90;;;;;;5032859;28;20187;-49
2023/05/15 09:03:02;;;;;;;5.20;4.17;;;26.00;99.90;;;;;;5033056;28;20262;-49
2023/05/15 09:05:28;;;;;;;6.23;4.30;;;25.90;99.90;;;;;;5032779;28;20433;-49
2023/05/15 09:07:55;;;;;;;4.80;4.10;;;25.80;99.90;;;;;;5032743;28;20214;-49
2023/05/15 09:10:21;;;;;;;4.33;3.90;;;25.80;99.90;;;;;;5033120;28;20537;-49
2023/05/15 09:12:50;;;;;;;4.17;3.87;;;26.10;99.90;;;;;;5032766;28;20453;-49
2023/05/15 09:15:20;;;;;;;4.87;4.40;;;26.50;99.90;;;;;;5036602;28;20421;-49
2023/05/15 09:17:46;;;;;;;4.57;3.80;;;26.60;99.90;;;;;;5036661;28;20626;-49
2023/05/15 09:20:33;;;;;;;5.70;3.47;;;26.60;99.90;;;;;;5036362;28;20414;-49
2023/05/15 09:23:02;;;;;;;6.57;4.43;;;26.90;99.90;;;;;;5036590;28;20433;-49
2023/05/15 09:25:39;;;;;;;4.43;3.70;;;26.80;99.90;;;;;;5036153;28;20987;-49
2023/05/15 09:28:06;;;;;;;6.20;4.27;;;26.60;99.90;;;;;;5036435;28;20814;-49
2023/05/15 09:30:33;;;;;;;5.27;4.03;;;26.50;99.90;;;;;;5036382;28;20414;-49
2023/05/15 09:33:02;;;;;;;4.43;3.67;;;26.50;99.90;;;;;;5036087;28;20425;-49
2023/05/15 09:35:31;;;;;;;5.93;4.40;;;26.80;99.90;;;;;;5035077;28;20845;-50
2023/05/15 09:38:01;;;;;;;6.00;4.67;;;26.60;99.90;;;;;;5036173;28;20468;-50
2023/05/15 09:40:31;;;;;;;6.50;4.20;;;26.40;99.90;;;;;;5036562;28;20815;-49
2023/05/15 09:42:57;;;;;;;5.33;4.30;;;26.30;99.90;;;;;;5036218;28;20422;-49
2023/05/15 09:45:25;;;;;;;7.20;4.00;;;26.70;99.90;;;;;;5036152;28;20429;-49
2023/05/15 09:47:51;;;;;;;7.80;4.30;;;26.80;99.90;;;;;;5036051;28;20429;-49
2023/05/15 09:50:33;;;;;;;5.93;4.50;;;26.90;99.90;;;;;;5035985;28;20793;-49
2023/05/15 09:52:59;;;;;;;6.97;4.60;;;26.90;99.90;;;;;;5036098;28;20446;-49
2023/05/15 09:55:26;;;;;;;7.77;4.47;;;26.70;99.90;;;;;;5036016;28;20422;-49
2023/05/15 09:58:12;;;;;;;4.60;4.20;;;27.20;99.90;;;;;;5035757;28;20659;-49
2023/05/15 10:00:39;;;;;;;3.90;3.50;;;27.50;99.90;;;;;;5035566;28;20784;-49
2023/05/15 10:03:06;;;;;;;5.20;3.40;;;27.60;99.90;;;;;;5035521;28;20410;-49
2023/05/15 10:05:32;;;;;;;5.77;3.90;;;27.30;99.90;;;;;;5035452;28;21017;-50
2023/05/15 10:07:58;;;;;;;3.87;3.23;;;27.20;99.90;;;;;;5035374;28;20501;-49
2023/05/15 10:10:25;;;;;;;4.37;3.30;;;27.10;99.90;;;;;;5035646;28;20506;-50
2023/05/15 10:12:52;;;;;;;3.50;3.20;;;27.40;99.90;;;;;;5035589;28;20423;-50
2023/05/15 10:15:20;;;;;;;8.40;3.20;;;27.70;99.90;;;;;;5035339;28;20422;-49
2023/05/15 10:17:51;;;;;;;4.73;3.53;;;28.20;99.90;;;;;;5035268;28;20489;-48
2023/05/15 10:20:18;;;;;;;5.20;3.70;;;28.70;99.90;;;;;;5035238;28;20863;-48
2023/05/15 10:22:49;;;;;;;5.70;3.53;;;28.90;99.90;;;;;;5034947;28;20422;-48
2023/05/15 10:25:17;;;;;;;6.90;4.10;;;28.80;99.90;;;;;;5034292;28;20410;-48
2023/05/15 10:27:45;;;;;;;3.63;3.33;;;28.60;99.90;;;;;;5034933;28;20552;-48
2023/05/15 10:30:12;;;;;;;4.80;3.40;;;28.60;99.90;;;;;;5034858;28;20848;-48
2023/05/15 10:32:40;;;;;;;3.80;3.37;;;28.40;99.90;;;;;;5035213;28;20413;-48
2023/05/15 10:35:08;;;;;;;7.10;3.27;;;28.30;99.90;;;;;;5035199;28;20410;-48
2023/05/15 10:37:35;;;;;;;4.20;3.47;;;28.40;99.90;;;;;;5035011;28;20913;-48
2023/05/15 10:40:02;;;;;;;8.87;3.60;;;28.80;99.90;;;;;;5035170;28;20424;-49
2023/05/15 10:42:29;;;;;;;3.83;3.30;;;28.60;99.90;;;;;;5035078;28;20410;-49
2023/05/15 10:44:58;;;;;;;5.93;3.50;;;28.60;99.90;;;;;;5035000;28;20410;-48
2023/05/15 10:47:25;;;;;;;4.40;3.50;;;28.90;99.90;;;;;;5034952;28;20418;-49
2023/05/15 10:49:51;;;;;;;3.60;3.30;;;29.30;99.90;;;;;;5034611;28;20569;-48
2023/05/15 10:52:17;;;;;;;5.17;3.20;;;29.40;99.90;;;;;;5034855;28;20446;-49
2023/05/15 10:54:43;;;;;;;5.60;4.00;;;29.60;99.90;;;;;;5034532;28;20186;-49
2023/05/15 10:57:09;;;;;;;4.20;3.80;;;29.50;99.90;;;;;;5034683;28;20237;-49
2023/05/15 10:59:35;;;;;;;3.83;3.40;;;29.40;99.90;;;;;;5034614;28;20457;-49
2023/05/15 11:02:36;;;;;;;3.30;3.10;;;29.40;99.90;;;;;;5034690;28;20188;-48
2023/05/15 11:05:02;;;;;;;5.60;3.63;;;29.50;99.90;;;;;;5034155;28;20722;-49
2023/05/15 11:07:28;;;;;;;4.97;3.53;;;29.80;99.90;;;;;;5034600;28;20504;-49
2023/05/15 11:09:55;;;;;;;4.60;3.60;;;30.10;99.90;;;;;;5034491;28;20453;-49
2023/05/15 11:12:21;;;;;;;6.83;3.37;;;30.00;99.90;;;;;;5034287;28;20210;-49
2023/05/15 11:14:53;;;;;;;4.20;3.30;;;30.30;99.90;;;;;;5034145;28;20894;-49
2023/05/15 11:17:21;;;;;;;3.73;3.43;;;30.60;99.90;;;;;;5034303;28;20426;-49
2023/05/15 11:19:50;;;;;;;3.90;3.50;;;30.60;99.90;;;;;;5033982;28;20501;-49
2023/05/15 11:22:27;;;;;;;3.70;3.40;;;30.60;99.90;;;;;;5033926;28;20422;-50
2023/05/15 11:25:15;;;;;;;3.83;3.50;;;30.70;99.90;;;;;;5034158;28;20413;-50
2023/05/15 11:27:44;;;;;;;4.27;3.87;;;30.90;99.90;;;;;;5034184;28;20760;-50
2023/05/15 11:30:19;;;;;;;3.90;3.60;;;30.60;99.90;;;;;;5033658;28;20423;-50
2023/05/15 11:32:55;;;;;;;3.80;3.30;;;30.30;99.90;;;;;;5033926;28;20425;-49
2023/05/15 11:35:44;;;;;;;4.20;3.80;;;29.70;99.90;;;;;;5034044;28;20422;-49
2023/05/15 11:38:13;;;;;;;6.03;3.40;;;28.30;99.90;;;;;;5033628;28;20815;-49
2023/05/15 11:40:51;;;;;;;4.43;4.03;;;27.20;99.90;;;;;;5033903;28;20828;-49
2023/05/15 11:43:36;;;;;;;5.03;3.97;;;26.00;99.90;;;;;;5033641;28;20442;-49
2023/05/15 11:46:07;;;;;;;4.80;4.00;;;25.20;99.90;;;;;;5033936;28;20407;-49
2023/05/15 11:48:40;;;;;;;8.00;3.70;;;24.50;99.90;;;;;;5033822;28;20434;-49
2023/05/15 11:51:19;;;;;;;6.53;3.83;;;24.10;99.90;;;;;;5033438;28;20482;-48
2023/05/15 11:53:45;;;;;;;7.17;4.13;;;24.00;99.90;;;;;;5033811;28;20418;-48
2023/05/15 11:56:18;;;;;;;7.03;4.10;;;23.60;99.90;;;;;;5033777;28;20414;-48
2023/05/15 11:58:46;;;;;;;8.83;4.00;;;23.50;99.90;;;;;;5033596;28;20291;-51
2023/05/15 12:01:12;;;;;;;5.83;4.30;;;23.60;99.90;;;;;;5033547;28;20436;-49
2023/05/15 12:03:37;;;;;;;4.70;4.30;;;23.60;99.90;;;;;;5033686;28;20496;-49
2023/05/15 12:06:03;;;;;;;10.00;4.30;;;23.60;99.90;;;;;;5034016;28;20214;-49
2023/05/15 12:08:33;;;;;;;6.40;4.00;;;23.70;99.90;;;;;;5033513;28;20289;-49
2023/05/15 12:11:00;;;;;;;3.97;3.57;;;23.70;99.90;;;;;;5033496;28;20479;-49
2023/05/15 12:13:26;;;;;;;4.57;3.87;;;23.70;99.90;;;;;;5033095;28;20793;-49
2023/05/15 12:15:54;;;;;;;7.60;4.90;;;23.90;99.90;;;;;;5033146;28;20410;-49
2023/05/15 12:18:19;;;;;;;8.40;6.00;;;23.70;99.90;;;;;;5033166;28;20231;-49
2023/05/15 12:20:45;;;;;;;7.20;6.50;;;23.60;99.90;;;;;;5033375;28;20449;-49
2023/05/15 12:23:14;;;;;;;12.40;7.73;;;23.50;99.90;;;;;;5033463;28;20642;-50
2023/05/15 12:25:42;;;;;;;12.00;7.37;;;23.30;99.90;;;;;;5033221;28;20209;-50
2023/05/15 12:28:08;;;;;;;9.67;7.70;;;23.00;99.90;;;;;;5033131;28;20958;-50
2023/05/15 12:30:34;;;;;;;9.73;6.57;;;22.90;99.90;;;;;;5033532;28;20423;-50
2023/05/15 12:33:02;;;;;;;12.47;8.03;;;22.80;99.90;;;;;;5033747;28;20507;-49
2023/05/15 12:35:28;;;;;;;17.93;9.80;;;22.70;99.90;;;;;;5033094;28;20971;-50
2023/05/15 12:37:54;;;;;;;13.90;10.37;;;22.70;99.90;;;;;;5032884;28;20456;-49
2023/05/15 12:40:21;;;;;;;13.63;10.63;;;22.70;99.90;;;;;;5033274;28;20228;-51
2023/05/15 12:42:55;;;;;;;10.50;9.40;;;22.50;99.90;;;;;;5033064;28;20181;-50